OOCL Chongqing — VRLZ4 — position and weather

sailwx.info

Track history (hours):
 
Tides and Currents Weather Stations Pressure Air Temp Water Temp Dewpoint Dewpoint Depression Visibility Wind Speed Wind Dir Waves Ship Positions

OOCL Chongqing

Last reported at 2018-Feb-20 06:00 UTC. Time now 2018-Feb-21 09:20 UTC.
Position N 41°12' W 051°48'.

Length 366 m; draft 12.8 m.

Type: Cargo ship. MMSI: 477832400.

Wind from 350 at 19 knots

Barometer 1035.0 mb
Air temperature 4.0 ° C
Visibility: greater than 5.4 NM
Dewpoint -0.9 ° C
Water temperature 13.0 ° C

Date/timePositionNaut miles runAvg speedWind from/ knotsBaromVisibWave heightAir tempDewpointWater temp
2018-Feb-20 06:00N 41°12' W 051°48'5016.7 350 / 191035.0 5.4 4.0-0.913.0
2018-Feb-20 03:00N 41°06' W 052°54'3210.5 360 / 301035.0 5.4 4.0-3.916.0
2018-Feb-20 00:00N 41°06' W 053°36'14716.3 360 / 301035.9 5.4 4.0-3.916.0
2018-Feb-19 15:00N 40°42' W 056°48'3210.8 360 / 351034.4 5.4 6.0 1.518.7
2018-Feb-19 12:00N 40°36' W 057°30'6310.4 360 / 401033.0 5.4 6.5 0.817.7
2018-Feb-19 06:00N 40°06' W 058°42'4113.7 330 / 451027.4 2.2 9.0 4.912.0
2018-Feb-19 03:00N 39°48' W 059°30'3010.1 300 / 551020.4 1.1 10.0 8.115.0
2018-Feb-19 00:00N 39°36' W 060°06'5016.6 330 / 601016.1 1.1 10.0 3.820.3
2018-Feb-18 21:00N 39°18' W 061°06'5518.5 030 / 701010.9 1.1 12.0 6.220.0
2018-Feb-18 18:00N 38°48' W 062°06'12220.4 260 / 521011.4 5.4 19.014.220.0
2018-Feb-18 12:00N 37°36' W 064°12'12020.0 190 / 501014.0 2.2 18.018.021.4
2018-Feb-18 06:00N 36°30' W 066°18'12120.2 180 / 301021.610.8 16.012.717.0
2018-Feb-18 00:00N 35°18' W 068°18'12621.0 120 / 201026.410.8 16.010.820.0
2018-Feb-17 18:00N 34°06' W 070°24'11218.6 090 / 221025.810.8 18.013.121.0
2018-Feb-17 12:00N 33°00' W 072°12'33915.3 050 / 301023.3 5.4 18.016.421.3
2018-Feb-16 13:50N 32°35' W 078°54'5311.8
2018-Feb-16 09:22N 32°48' W 079°55'2 5.6
2018-Feb-16 09:00N 32°50' W 079°54'0 0.1
2018-Feb-16 07:30N 32°50' W 079°54'0 0.0
2018-Feb-16 04:30N 32°50' W 079°54'0 0.0
2018-Feb-15 08:00N 32°50' W 079°54'22 4.2
2018-Feb-15 02:52N 32°36' W 079°34'51 4.1
2018-Feb-14 14:12N 32°00' W 080°17'2 6.3
2018-Feb-14 13:48N 31°59' W 080°20'2 6.4
2018-Feb-14 13:30N 31°59' W 080°22'6 6.3
2018-Feb-14 12:32N 31°57' W 080°29'0 6.2
2018-Feb-14 12:30N 31°57' W 080°29'3 6.2
2018-Feb-14 12:00N 31°56' W 080°33'3 5.9
2018-Feb-14 11:29N 31°56' W 080°36'3 5.7
2018-Feb-14 11:00N 31°57' W 080°40'3 5.6
2018-Feb-14 10:30N 31°57' W 080°43'612.4
2018-Feb-14 10:00N 32°01' W 080°48'510.3
2018-Feb-14 09:30N 32°02' W 080°54'5 9.2
2018-Feb-14 09:00N 32°05' W 080°59'3 6.9
2018-Feb-14 08:30N 32°05' W 081°03'3 4.9
2018-Feb-14 07:59N 32°05' W 081°06'2 4.8
2018-Feb-14 07:30N 32°07' W 081°08'1 2.7
2018-Feb-14 07:00N 32°08' W 081°09'0 0.0
2018-Feb-14 06:28N 32°08' W 081°09'0 0.0
2018-Feb-14 05:58N 32°08' W 081°09'0 0.0
2018-Feb-14 05:28N 32°08' W 081°09'0 0.0
2018-Feb-14 04:58N 32°08' W 081°09'0 0.0
2018-Feb-14 04:22N 32°08' W 081°09'0 0.0
2018-Feb-14 03:46N 32°08' W 081°09'0 0.0
2018-Feb-14 03:22N 32°08' W 081°09'0 0.0
2018-Feb-14 02:58N 32°08' W 081°09'0 0.0
2018-Feb-14 02:28N 32°08' W 081°09'0 0.0
2018-Feb-14 01:58N 32°08' W 081°09'0 0.0
2018-Feb-14 01:28N 32°08' W 081°09'0 0.0
2018-Feb-14 00:58N 32°08' W 081°09'0 0.0
2018-Feb-14 00:28N 32°08' W 081°09'0 0.0
2018-Feb-13 23:58N 32°08' W 081°09'0 0.0
2018-Feb-13 23:28N 32°08' W 081°09'0 0.0
2018-Feb-13 22:58N 32°08' W 081°09'0 0.0
2018-Feb-13 22:28N 32°08' W 081°09'0 0.0
2018-Feb-13 21:52N 32°08' W 081°09'0 0.0
2018-Feb-13 21:28N 32°08' W 081°09'0 0.0
2018-Feb-13 20:58N 32°08' W 081°09'0 0.0
2018-Feb-13 20:28N 32°08' W 081°09'0 0.0
2018-Feb-13 19:58N 32°08' W 081°09'0 0.0
2018-Feb-13 19:22N 32°08' W 081°09'0 0.0
2018-Feb-13 18:58N 32°08' W 081°09'0 0.0
2018-Feb-13 18:28N 32°08' W 081°09'0 0.0
2018-Feb-13 17:52N 32°08' W 081°09'0 0.0
2018-Feb-13 17:28N 32°08' W 081°09'0 0.0
2018-Feb-13 16:58N 32°08' W 081°09'0 0.0
2018-Feb-13 16:28N 32°08' W 081°09'0 0.0
2018-Feb-13 15:58N 32°08' W 081°09'0 0.0
2018-Feb-13 15:28N 32°08' W 081°09'0 0.0
2018-Feb-13 14:58N 32°08' W 081°09'0 0.0
2018-Feb-13 14:28N 32°08' W 081°09'0 0.0
2018-Feb-13 13:58N 32°08' W 081°09'0 0.0
2018-Feb-13 13:28N 32°08' W 081°09'0 0.0
2018-Feb-13 12:58N 32°08' W 081°09'0 0.0
2018-Feb-13 12:28N 32°08' W 081°09'0 0.0
2018-Feb-13 11:52N 32°08' W 081°09'0 0.0
2018-Feb-13 11:28N 32°08' W 081°09'0 0.0
2018-Feb-13 10:58N 32°08' W 081°09'0 0.0
2018-Feb-13 10:28N 32°08' W 081°09'0 0.0
2018-Feb-13 09:58N 32°08' W 081°09'0 0.0
2018-Feb-13 09:28N 32°08' W 081°09'0 0.0
2018-Feb-13 08:58N 32°08' W 081°09'0 0.0
2018-Feb-13 08:28N 32°08' W 081°09'0 0.0
2018-Feb-13 07:58N 32°08' W 081°09'0 0.0
2018-Feb-13 07:28N 32°08' W 081°09'0 0.0
2018-Feb-13 06:58N 32°08' W 081°09'0 0.0
2018-Feb-13 06:28N 32°08' W 081°09'0 0.0
2018-Feb-13 05:58N 32°08' W 081°09'0 0.0
2018-Feb-13 05:28N 32°08' W 081°09'0 0.0
2018-Feb-13 04:58N 32°08' W 081°09'0 0.0
2018-Feb-13 04:28N 32°08' W 081°09'0 0.0
2018-Feb-13 03:58N 32°08' W 081°09'0 0.0
2018-Feb-13 03:28N 32°08' W 081°09'0 0.0
2018-Feb-13 02:58N 32°08' W 081°09'0 0.0
2018-Feb-13 02:28N 32°08' W 081°09'0 0.0
2018-Feb-13 01:58N 32°08' W 081°09'0 0.0
2018-Feb-13 01:04N 32°08' W 081°09'0 0.0
2018-Feb-13 00:46N 32°08' W 081°09'0 0.0
2018-Feb-13 00:28N 32°08' W 081°09'0 0.0
2018-Feb-12 23:58N 32°08' W 081°09'0 0.0
2018-Feb-12 23:28N 32°08' W 081°09'0 0.0
2018-Feb-12 22:58N 32°08' W 081°09'0 0.0
2018-Feb-12 22:28N 32°08' W 081°09'0 0.0
2018-Feb-12 21:58N 32°08' W 081°09'0 0.0
2018-Feb-12 21:28N 32°08' W 081°09'0 0.0
2018-Feb-12 20:58N 32°08' W 081°09'0 0.0
2018-Feb-12 20:22N 32°08' W 081°09'0 0.0
2018-Feb-12 19:58N 32°08' W 081°09'0 0.0
2018-Feb-12 19:28N 32°08' W 081°09'0 0.0
2018-Feb-12 18:52N 32°08' W 081°09'0 0.0
2018-Feb-12 18:28N 32°08' W 081°09'0 0.0
2018-Feb-12 17:58N 32°08' W 081°09'0 0.0
2018-Feb-12 17:28N 32°08' W 081°09'0 0.0
2018-Feb-12 16:58N 32°08' W 081°09'0 0.0
2018-Feb-12 16:22N 32°08' W 081°09'0 0.0
2018-Feb-12 15:58N 32°08' W 081°09'0 0.0
2018-Feb-12 15:16N 32°08' W 081°09'0 0.0
2018-Feb-12 14:58N 32°08' W 081°09'0 0.0
2018-Feb-12 14:22N 32°08' W 081°09'0 0.0
2018-Feb-12 13:58N 32°08' W 081°09'0 0.0
2018-Feb-12 13:28N 32°08' W 081°09'0 0.0
2018-Feb-12 12:58N 32°08' W 081°09'0 0.0
2018-Feb-12 12:22N 32°08' W 081°09'0 0.0
2018-Feb-12 11:58N 32°08' W 081°09'0 0.0
2018-Feb-12 11:28N 32°08' W 081°09'0 0.0
2018-Feb-12 10:58N 32°08' W 081°09'0 0.0
2018-Feb-12 10:28N 32°08' W 081°09'0 0.0
2018-Feb-12 09:58N 32°08' W 081°09'0 0.0
2018-Feb-12 09:28N 32°08' W 081°09'0 0.0
2018-Feb-12 09:00N 32°08' W 081°09'0 0.8
2018-Feb-12 08:30N 32°08' W 081°08'2 4.1
2018-Feb-12 08:00N 32°06' W 081°07'3 6.2
2018-Feb-12 07:30N 32°05' W 081°04'4 7.4
2018-Feb-12 07:00N 32°05' W 080°59'510.0
2018-Feb-12 06:30N 32°02' W 080°55'611.7
2018-Feb-12 06:00N 32°01' W 080°48'713.7
2018-Feb-12 05:30N 31°57' W 080°42'4 7.8
2018-Feb-12 05:00N 31°56' W 080°37'3 5.2
2018-Feb-12 04:30N 31°57' W 080°34'0 0.1
2018-Feb-12 03:55N 31°57' W 080°34'0 0.0
2018-Feb-12 03:25N 31°57' W 080°34'0 0.0
2018-Feb-12 02:55N 31°57' W 080°34'0 0.1
2018-Feb-12 02:25N 31°57' W 080°34'0 0.1
2018-Feb-12 01:55N 31°57' W 080°34'0 0.0
2018-Feb-12 01:25N 31°57' W 080°34'0 0.0
2018-Feb-12 00:49N 31°57' W 080°34'0 0.2
2018-Feb-12 00:25N 31°57' W 080°34'0 0.0
2018-Feb-11 23:55N 31°57' W 080°34'0 0.0
2018-Feb-11 23:25N 31°57' W 080°34'0 0.0
2018-Feb-11 22:55N 31°57' W 080°34'0 0.0
2018-Feb-11 22:25N 31°57' W 080°34'0 0.0
2018-Feb-11 21:49N 31°57' W 080°34'0 0.0
2018-Feb-11 21:25N 31°57' W 080°34'0 0.0
2018-Feb-11 20:55N 31°57' W 080°34'0 0.0
2018-Feb-11 20:13N 31°57' W 080°34'0 0.0
2018-Feb-11 19:49N 31°57' W 080°34'0 0.0
2018-Feb-11 19:25N 31°57' W 080°34'0 0.0
2018-Feb-11 18:55N 31°57' W 080°34'0 0.0
2018-Feb-11 17:07N 31°57' W 080°34'0 0.0
2018-Feb-11 16:55N 31°57' W 080°34'0 0.0
2018-Feb-11 16:25N 31°57' W 080°34'0 0.0
2018-Feb-11 15:55N 31°57' W 080°34'0 0.0
2018-Feb-11 15:25N 31°57' W 080°34'0 0.0
2018-Feb-11 14:49N 31°57' W 080°34'0 0.0
2018-Feb-11 14:25N 31°57' W 080°34'0 0.0
2018-Feb-11 13:55N 31°57' W 080°34'0 0.0
2018-Feb-11 13:25N 31°57' W 080°34'0 0.0
2018-Feb-11 11:31N 31°57' W 080°34'0 0.0
2018-Feb-11 04:49N 31°57' W 080°34'0 0.0
2018-Feb-11 04:25N 31°57' W 080°34'0 0.2
2018-Feb-11 03:55N 31°57' W 080°34'1 2.6
2018-Feb-11 03:30N 31°58' W 080°33'3 1.0
2018-Feb-11 00:37N 31°60' W 080°31'0 0.2
2018-Feb-11 00:25N 31°60' W 080°30'0 0.3
2018-Feb-11 00:00N 31°60' W 080°30'3 6.5
2018-Feb-10 23:30N 31°60' W 080°27'4 8.0
2018-Feb-10 23:00N 32°01' W 080°22'3 5.5
2018-Feb-10 22:30N 32°03' W 080°19'1 1.7
2018-Feb-10 22:00N 32°03' W 080°19'1 0.9
2018-Feb-10 21:25N 32°03' W 080°19'0 0.9
2018-Feb-10 20:54N 32°03' W 080°19'0 0.8
2018-Feb-10 20:30N 32°02' W 080°19'0 0.9
2018-Feb-10 20:00N 32°02' W 080°19'0 0.9
2018-Feb-10 19:30N 32°01' W 080°19'1 1.0
2018-Feb-10 19:00N 32°01' W 080°19'1 1.0
2018-Feb-10 18:28N 32°01' W 080°18'1 1.2
2018-Feb-10 17:59N 32°00' W 080°18'1 1.0
2018-Feb-10 17:19N 31°60' W 080°17'0 1.4
2018-Feb-10 17:00N 31°60' W 080°17'4 6.0
2018-Feb-10 16:17N 32°01' W 080°12'  
Track history (hours):
 
Tides and Currents Weather Stations Pressure Air Temp Water Temp Dewpoint Dewpoint Depression Visibility Wind Speed Wind Dir Waves Ship Positions

OOCL Chongqing

Last reported at 2018-Feb-20 06:00 UTC. Time now 2018-Feb-21 09:20 UTC.
Position N 41°12' W 051°48'.

Length 366 m; draft 12.8 m.

Type: Cargo ship. MMSI: 477832400.

Wind from 350 at 19 knots

Barometer 1035.0 mb
Air temperature 4.0 ° C
Visibility: greater than 5.4 NM
Dewpoint -0.9 ° C
Water temperature 13.0 ° C

Date/timePositionNaut miles runAvg speedWind from/ knotsBaromVisibWave heightAir tempDewpointWater temp
2018-Feb-20 06:00N 41°12' W 051°48'5016.7 350 / 191035.0 5.4 4.0-0.913.0
2018-Feb-20 03:00N 41°06' W 052°54'3210.5 360 / 301035.0 5.4 4.0-3.916.0
2018-Feb-20 00:00N 41°06' W 053°36'14716.3 360 / 301035.9 5.4 4.0-3.916.0
2018-Feb-19 15:00N 40°42' W 056°48'3210.8 360 / 351034.4 5.4 6.0 1.518.7
2018-Feb-19 12:00N 40°36' W 057°30'6310.4 360 / 401033.0 5.4 6.5 0.817.7
2018-Feb-19 06:00N 40°06' W 058°42'4113.7 330 / 451027.4 2.2 9.0 4.912.0
2018-Feb-19 03:00N 39°48' W 059°30'3010.1 300 / 551020.4 1.1 10.0 8.115.0
2018-Feb-19 00:00N 39°36' W 060°06'5016.6 330 / 601016.1 1.1 10.0 3.820.3
2018-Feb-18 21:00N 39°18' W 061°06'5518.5 030 / 701010.9 1.1 12.0 6.220.0
2018-Feb-18 18:00N 38°48' W 062°06'12220.4 260 / 521011.4 5.4 19.014.220.0
2018-Feb-18 12:00N 37°36' W 064°12'12020.0 190 / 501014.0 2.2 18.018.021.4
2018-Feb-18 06:00N 36°30' W 066°18'12120.2 180 / 301021.610.8 16.012.717.0
2018-Feb-18 00:00N 35°18' W 068°18'12621.0 120 / 201026.410.8 16.010.820.0
2018-Feb-17 18:00N 34°06' W 070°24'11218.6 090 / 221025.810.8 18.013.121.0
2018-Feb-17 12:00N 33°00' W 072°12'33915.3 050 / 301023.3 5.4 18.016.421.3
2018-Feb-16 13:50N 32°35' W 078°54'5311.8
2018-Feb-16 09:22N 32°48' W 079°55'2 5.6
2018-Feb-16 09:00N 32°50' W 079°54'0 0.1
2018-Feb-16 07:30N 32°50' W 079°54'0 0.0
2018-Feb-16 04:30N 32°50' W 079°54'0 0.0
2018-Feb-15 08:00N 32°50' W 079°54'22 4.2
2018-Feb-15 02:52N 32°36' W 079°34'51 4.1
2018-Feb-14 14:12N 32°00' W 080°17'2 6.3
2018-Feb-14 13:48N 31°59' W 080°20'2 6.4
2018-Feb-14 13:30N 31°59' W 080°22'6 6.3
2018-Feb-14 12:32N 31°57' W 080°29'0 6.2
2018-Feb-14 12:30N 31°57' W 080°29'3 6.2
2018-Feb-14 12:00N 31°56' W 080°33'3 5.9
2018-Feb-14 11:29N 31°56' W 080°36'3 5.7
2018-Feb-14 11:00N 31°57' W 080°40'3 5.6
2018-Feb-14 10:30N 31°57' W 080°43'612.4
2018-Feb-14 10:00N 32°01' W 080°48'510.3
2018-Feb-14 09:30N 32°02' W 080°54'5 9.2
2018-Feb-14 09:00N 32°05' W 080°59'3 6.9
2018-Feb-14 08:30N 32°05' W 081°03'3 4.9
2018-Feb-14 07:59N 32°05' W 081°06'2 4.8
2018-Feb-14 07:30N 32°07' W 081°08'1 2.7
2018-Feb-14 07:00N 32°08' W 081°09'0 0.0
2018-Feb-14 06:28N 32°08' W 081°09'0 0.0
2018-Feb-14 05:58N 32°08' W 081°09'0 0.0
2018-Feb-14 05:28N 32°08' W 081°09'0 0.0
2018-Feb-14 04:58N 32°08' W 081°09'0 0.0
2018-Feb-14 04:22N 32°08' W 081°09'0 0.0
2018-Feb-14 03:46N 32°08' W 081°09'0 0.0
2018-Feb-14 03:22N 32°08' W 081°09'0 0.0
2018-Feb-14 02:58N 32°08' W 081°09'0 0.0
2018-Feb-14 02:28N 32°08' W 081°09'0 0.0
2018-Feb-14 01:58N 32°08' W 081°09'0 0.0
2018-Feb-14 01:28N 32°08' W 081°09'0 0.0
2018-Feb-14 00:58N 32°08' W 081°09'0 0.0
2018-Feb-14 00:28N 32°08' W 081°09'0 0.0
2018-Feb-13 23:58N 32°08' W 081°09'0 0.0
2018-Feb-13 23:28N 32°08' W 081°09'0 0.0
2018-Feb-13 22:58N 32°08' W 081°09'0 0.0
2018-Feb-13 22:28N 32°08' W 081°09'0 0.0
2018-Feb-13 21:52N 32°08' W 081°09'0 0.0
2018-Feb-13 21:28N 32°08' W 081°09'0 0.0
2018-Feb-13 20:58N 32°08' W 081°09'0 0.0
2018-Feb-13 20:28N 32°08' W 081°09'0 0.0
2018-Feb-13 19:58N 32°08' W 081°09'0 0.0
2018-Feb-13 19:22N 32°08' W 081°09'0 0.0
2018-Feb-13 18:58N 32°08' W 081°09'0 0.0
2018-Feb-13 18:28N 32°08' W 081°09'0 0.0
2018-Feb-13 17:52N 32°08' W 081°09'0 0.0
2018-Feb-13 17:28N 32°08' W 081°09'0 0.0
2018-Feb-13 16:58N 32°08' W 081°09'0 0.0
2018-Feb-13 16:28N 32°08' W 081°09'0 0.0
2018-Feb-13 15:58N 32°08' W 081°09'0 0.0
2018-Feb-13 15:28N 32°08' W 081°09'0 0.0
2018-Feb-13 14:58N 32°08' W 081°09'0 0.0
2018-Feb-13 14:28N 32°08' W 081°09'0 0.0
2018-Feb-13 13:58N 32°08' W 081°09'0 0.0
2018-Feb-13 13:28N 32°08' W 081°09'0 0.0
2018-Feb-13 12:58N 32°08' W 081°09'0 0.0
2018-Feb-13 12:28N 32°08' W 081°09'0 0.0
2018-Feb-13 11:52N 32°08' W 081°09'0 0.0
2018-Feb-13 11:28N 32°08' W 081°09'0 0.0
2018-Feb-13 10:58N 32°08' W 081°09'0 0.0
2018-Feb-13 10:28N 32°08' W 081°09'0 0.0
2018-Feb-13 09:58N 32°08' W 081°09'0 0.0
2018-Feb-13 09:28N 32°08' W 081°09'0 0.0
2018-Feb-13 08:58N 32°08' W 081°09'0 0.0
2018-Feb-13 08:28N 32°08' W 081°09'0 0.0
2018-Feb-13 07:58N 32°08' W 081°09'0 0.0
2018-Feb-13 07:28N 32°08' W 081°09'0 0.0
2018-Feb-13 06:58N 32°08' W 081°09'0 0.0
2018-Feb-13 06:28N 32°08' W 081°09'0 0.0
2018-Feb-13 05:58N 32°08' W 081°09'0 0.0
2018-Feb-13 05:28N 32°08' W 081°09'0 0.0
2018-Feb-13 04:58N 32°08' W 081°09'0 0.0
2018-Feb-13 04:28N 32°08' W 081°09'0 0.0
2018-Feb-13 03:58N 32°08' W 081°09'0 0.0
2018-Feb-13 03:28N 32°08' W 081°09'0 0.0
2018-Feb-13 02:58N 32°08' W 081°09'0 0.0
2018-Feb-13 02:28N 32°08' W 081°09'0 0.0
2018-Feb-13 01:58N 32°08' W 081°09'0 0.0
2018-Feb-13 01:04N 32°08' W 081°09'0 0.0
2018-Feb-13 00:46N 32°08' W 081°09'0 0.0
2018-Feb-13 00:28N 32°08' W 081°09'0 0.0
2018-Feb-12 23:58N 32°08' W 081°09'0 0.0
2018-Feb-12 23:28N 32°08' W 081°09'0 0.0
2018-Feb-12 22:58N 32°08' W 081°09'0 0.0
2018-Feb-12 22:28N 32°08' W 081°09'0 0.0
2018-Feb-12 21:58N 32°08' W 081°09'0 0.0
2018-Feb-12 21:28N 32°08' W 081°09'0 0.0
2018-Feb-12 20:58N 32°08' W 081°09'0 0.0
2018-Feb-12 20:22N 32°08' W 081°09'0 0.0
2018-Feb-12 19:58N 32°08' W 081°09'0 0.0
2018-Feb-12 19:28N 32°08' W 081°09'0 0.0
2018-Feb-12 18:52N 32°08' W 081°09'0 0.0
2018-Feb-12 18:28N 32°08' W 081°09'0 0.0
2018-Feb-12 17:58N 32°08' W 081°09'0 0.0
2018-Feb-12 17:28N 32°08' W 081°09'0 0.0
2018-Feb-12 16:58N 32°08' W 081°09'0 0.0
2018-Feb-12 16:22N 32°08' W 081°09'0 0.0
2018-Feb-12 15:58N 32°08' W 081°09'0 0.0
2018-Feb-12 15:16N 32°08' W 081°09'0 0.0
2018-Feb-12 14:58N 32°08' W 081°09'0 0.0
2018-Feb-12 14:22N 32°08' W 081°09'0 0.0
2018-Feb-12 13:58N 32°08' W 081°09'0 0.0
2018-Feb-12 13:28N 32°08' W 081°09'0 0.0
2018-Feb-12 12:58N 32°08' W 081°09'0 0.0
2018-Feb-12 12:22N 32°08' W 081°09'0 0.0
2018-Feb-12 11:58N 32°08' W 081°09'0 0.0
2018-Feb-12 11:28N 32°08' W 081°09'0 0.0
2018-Feb-12 10:58N 32°08' W 081°09'0 0.0
2018-Feb-12 10:28N 32°08' W 081°09'0 0.0
2018-Feb-12 09:58N 32°08' W 081°09'0 0.0
2018-Feb-12 09:28N 32°08' W 081°09'0 0.0
2018-Feb-12 09:00N 32°08' W 081°09'0 0.8
2018-Feb-12 08:30N 32°08' W 081°08'2 4.1
2018-Feb-12 08:00N 32°06' W 081°07'3 6.2
2018-Feb-12 07:30N 32°05' W 081°04'4 7.4
2018-Feb-12 07:00N 32°05' W 080°59'510.0
2018-Feb-12 06:30N 32°02' W 080°55'611.7
2018-Feb-12 06:00N 32°01' W 080°48'713.7
2018-Feb-12 05:30N 31°57' W 080°42'4 7.8
2018-Feb-12 05:00N 31°56' W 080°37'3 5.2
2018-Feb-12 04:30N 31°57' W 080°34'0 0.1
2018-Feb-12 03:55N 31°57' W 080°34'0 0.0
2018-Feb-12 03:25N 31°57' W 080°34'0 0.0
2018-Feb-12 02:55N 31°57' W 080°34'0 0.1
2018-Feb-12 02:25N 31°57' W 080°34'0 0.1
2018-Feb-12 01:55N 31°57' W 080°34'0 0.0
2018-Feb-12 01:25N 31°57' W 080°34'0 0.0
2018-Feb-12 00:49N 31°57' W 080°34'0 0.2
2018-Feb-12 00:25N 31°57' W 080°34'0 0.0
2018-Feb-11 23:55N 31°57' W 080°34'0 0.0
2018-Feb-11 23:25N 31°57' W 080°34'0 0.0
2018-Feb-11 22:55N 31°57' W 080°34'0 0.0
2018-Feb-11 22:25N 31°57' W 080°34'0 0.0
2018-Feb-11 21:49N 31°57' W 080°34'0 0.0
2018-Feb-11 21:25N 31°57' W 080°34'0 0.0
2018-Feb-11 20:55N 31°57' W 080°34'0 0.0
2018-Feb-11 20:13N 31°57' W 080°34'0 0.0
2018-Feb-11 19:49N 31°57' W 080°34'0 0.0
2018-Feb-11 19:25N 31°57' W 080°34'0 0.0
2018-Feb-11 18:55N 31°57' W 080°34'0 0.0
2018-Feb-11 17:07N 31°57' W 080°34'0 0.0
2018-Feb-11 16:55N 31°57' W 080°34'0 0.0
2018-Feb-11 16:25N 31°57' W 080°34'0 0.0
2018-Feb-11 15:55N 31°57' W 080°34'0 0.0
2018-Feb-11 15:25N 31°57' W 080°34'0 0.0
2018-Feb-11 14:49N 31°57' W 080°34'0 0.0
2018-Feb-11 14:25N 31°57' W 080°34'0 0.0
2018-Feb-11 13:55N 31°57' W 080°34'0 0.0
2018-Feb-11 13:25N 31°57' W 080°34'0 0.0
2018-Feb-11 11:31N 31°57' W 080°34'0 0.0
2018-Feb-11 04:49N 31°57' W 080°34'0 0.0
2018-Feb-11 04:25N 31°57' W 080°34'0 0.2
2018-Feb-11 03:55N 31°57' W 080°34'1 2.6
2018-Feb-11 03:30N 31°58' W 080°33'3 1.0
2018-Feb-11 00:37N 31°60' W 080°31'0 0.2
2018-Feb-11 00:25N 31°60' W 080°30'0 0.3
2018-Feb-11 00:00N 31°60' W 080°30'3 6.5
2018-Feb-10 23:30N 31°60' W 080°27'4 8.0
2018-Feb-10 23:00N 32°01' W 080°22'3 5.5
2018-Feb-10 22:30N 32°03' W 080°19'1 1.7
2018-Feb-10 22:00N 32°03' W 080°19'1 0.9
2018-Feb-10 21:25N 32°03' W 080°19'0 0.9
2018-Feb-10 20:54N 32°03' W 080°19'0 0.8
2018-Feb-10 20:30N 32°02' W 080°19'0 0.9
2018-Feb-10 20:00N 32°02' W 080°19'0 0.9
2018-Feb-10 19:30N 32°01' W 080°19'1 1.0
2018-Feb-10 19:00N 32°01' W 080°19'1 1.0
2018-Feb-10 18:28N 32°01' W 080°18'1 1.2
2018-Feb-10 17:59N 32°00' W 080°18'1 1.0
2018-Feb-10 17:19N 31°60' W 080°17'0 1.4
2018-Feb-10 17:00N 31°60' W 080°17'4 6.0
2018-Feb-10 16:17N 32°01' W 080°12'  

Dump ship's entire track history